sensor_id;sensor_type;location;lat;lon;timestamp;temperature;humidity
42841;DHT22;28491;46.898;7.660;2024-01-30T00:00:40;2.00;92.30
42841;DHT22;28491;46.898;7.660;2024-01-30T00:03:06;2.00;93.50
42841;DHT22;28491;46.898;7.660;2024-01-30T00:05:31;2.10;92.70
42841;DHT22;28491;46.898;7.660;2024-01-30T00:07:57;2.10;91.20
42841;DHT22;28491;46.898;7.660;2024-01-30T00:10:22;2.10;93.00
42841;DHT22;28491;46.898;7.660;2024-01-30T00:12:48;2.10;89.80
42841;DHT22;28491;46.898;7.660;2024-01-30T00:15:13;2.00;86.20
42841;DHT22;28491;46.898;7.660;2024-01-30T00:17:40;2.00;94.10
42841;DHT22;28491;46.898;7.660;2024-01-30T00:20:06;2.00;94.90
42841;DHT22;28491;46.898;7.660;2024-01-30T00:22:32;2.00;91.70
42841;DHT22;28491;46.898;7.660;2024-01-30T00:24:58;2.00;92.00
42841;DHT22;28491;46.898;7.660;2024-01-30T00:27:23;2.00;90.30
42841;DHT22;28491;46.898;7.660;2024-01-30T00:29:49;1.90;85.10
42841;DHT22;28491;46.898;7.660;2024-01-30T00:32:15;1.80;85.10
42841;DHT22;28491;46.898;7.660;2024-01-30T00:34:41;1.80;91.90
42841;DHT22;28491;46.898;7.660;2024-01-30T00:37:07;1.80;93.70
42841;DHT22;28491;46.898;7.660;2024-01-30T00:39:33;1.90;94.20
42841;DHT22;28491;46.898;7.660;2024-01-30T00:41:58;1.90;94.00
42841;DHT22;28491;46.898;7.660;2024-01-30T00:44:24;1.90;93.80
42841;DHT22;28491;46.898;7.660;2024-01-30T00:46:49;2.00;94.10
42841;DHT22;28491;46.898;7.660;2024-01-30T00:49:15;2.00;92.40
42841;DHT22;28491;46.898;7.660;2024-01-30T00:51:40;2.00;89.90
42841;DHT22;28491;46.898;7.660;2024-01-30T00:54:06;1.90;92.00
42841;DHT22;28491;46.898;7.660;2024-01-30T00:56:32;2.00;92.90
42841;DHT22;28491;46.898;7.660;2024-01-30T00:58:57;2.00;92.20
42841;DHT22;28491;46.898;7.660;2024-01-30T01:01:23;1.90;91.80
42841;DHT22;28491;46.898;7.660;2024-01-30T01:03:48;2.00;91.40
42841;DHT22;28491;46.898;7.660;2024-01-30T01:06:14;2.00;91.50
42841;DHT22;28491;46.898;7.660;2024-01-30T01:08:40;2.00;91.30
42841;DHT22;28491;46.898;7.660;2024-01-30T01:11:05;2.00;87.70
42841;DHT22;28491;46.898;7.660;2024-01-30T01:13:31;1.90;84.40
42841;DHT22;28491;46.898;7.660;2024-01-30T01:15:56;1.90;87.90
42841;DHT22;28491;46.898;7.660;2024-01-30T01:18:22;2.00;90.70
42841;DHT22;28491;46.898;7.660;2024-01-30T01:20:48;2.00;85.20
42841;DHT22;28491;46.898;7.660;2024-01-30T01:23:13;1.90;83.90
42841;DHT22;28491;46.898;7.660;2024-01-30T01:25:39;1.90;85.00
42841;DHT22;28491;46.898;7.660;2024-01-30T01:28:05;1.90;87.70
42841;DHT22;28491;46.898;7.660;2024-01-30T01:30:31;1.90;87.60
42841;DHT22;28491;46.898;7.660;2024-01-30T01:32:56;1.90;83.70
42841;DHT22;28491;46.898;7.660;2024-01-30T01:35:23;1.80;87.30
42841;DHT22;28491;46.898;7.660;2024-01-30T01:37:53;1.80;89.50
42841;DHT22;28491;46.898;7.660;2024-01-30T01:40:24;1.90;86.10
42841;DHT22;28491;46.898;7.660;2024-01-30T01:42:51;1.80;87.20
42841;DHT22;28491;46.898;7.660;2024-01-30T01:45:20;1.90;84.90
42841;DHT22;28491;46.898;7.660;2024-01-30T01:47:49;1.90;84.70
42841;DHT22;28491;46.898;7.660;2024-01-30T01:50:16;1.90;82.40
42841;DHT22;28491;46.898;7.660;2024-01-30T01:52:46;1.90;75.10
42841;DHT22;28491;46.898;7.660;2024-01-30T01:55:13;1.80;72.90
42841;DHT22;28491;46.898;7.660;2024-01-30T01:57:39;1.80;76.40
42841;DHT22;28491;46.898;7.660;2024-01-30T02:00:05;1.70;81.60
42841;DHT22;28491;46.898;7.660;2024-01-30T02:02:35;1.70;84.00
42841;DHT22;28491;46.898;7.660;2024-01-30T02:05:01;1.80;76.70
42841;DHT22;28491;46.898;7.660;2024-01-30T02:07:28;1.80;76.70
42841;DHT22;28491;46.898;7.660;2024-01-30T02:09:54;1.80;79.80
42841;DHT22;28491;46.898;7.660;2024-01-30T02:12:20;1.80;78.50
42841;DHT22;28491;46.898;7.660;2024-01-30T02:14:49;1.80;76.30
42841;DHT22;28491;46.898;7.660;2024-01-30T02:17:16;1.80;73.70
42841;DHT22;28491;46.898;7.660;2024-01-30T02:19:42;1.80;67.30
42841;DHT22;28491;46.898;7.660;2024-01-30T02:22:08;1.80;55.50
42841;DHT22;28491;46.898;7.660;2024-01-30T02:24:33;1.80;67.40
42841;DHT22;28491;46.898;7.660;2024-01-30T02:26:59;1.70;72.00
42841;DHT22;28491;46.898;7.660;2024-01-30T02:29:24;1.80;72.40
42841;DHT22;28491;46.898;7.660;2024-01-30T02:31:50;1.70;73.90
42841;DHT22;28491;46.898;7.660;2024-01-30T02:34:15;1.70;84.00
42841;DHT22;28491;46.898;7.660;2024-01-30T02:36:44;1.70;87.90
42841;DHT22;28491;46.898;7.660;2024-01-30T02:39:10;1.80;88.50
42841;DHT22;28491;46.898;7.660;2024-01-30T02:41:36;1.80;86.70
42841;DHT22;28491;46.898;7.660;2024-01-30T02:44:02;1.70;83.00
42841;DHT22;28491;46.898;7.660;2024-01-30T02:46:28;1.70;86.80
42841;DHT22;28491;46.898;7.660;2024-01-30T02:48:54;1.80;88.80
42841;DHT22;28491;46.898;7.660;2024-01-30T02:51:19;1.80;85.70
42841;DHT22;28491;46.898;7.660;2024-01-30T02:53:45;1.70;87.40
42841;DHT22;28491;46.898;7.660;2024-01-30T02:56:10;1.80;85.00
42841;DHT22;28491;46.898;7.660;2024-01-30T02:58:37;1.70;87.70
42841;DHT22;28491;46.898;7.660;2024-01-30T03:01:03;1.80;90.60
42841;DHT22;28491;46.898;7.660;2024-01-30T03:03:28;1.80;88.40
42841;DHT22;28491;46.898;7.660;2024-01-30T03:05:54;1.70;87.40
42841;DHT22;28491;46.898;7.660;2024-01-30T03:08:20;1.70;81.40
42841;DHT22;28491;46.898;7.660;2024-01-30T03:10:46;1.70;84.90
42841;DHT22;28491;46.898;7.660;2024-01-30T03:13:11;1.60;88.30
42841;DHT22;28491;46.898;7.660;2024-01-30T03:15:37;1.60;89.50
42841;DHT22;28491;46.898;7.660;2024-01-30T03:18:03;1.60;83.50
42841;DHT22;28491;46.898;7.660;2024-01-30T03:20:31;1.60;84.90
42841;DHT22;28491;46.898;7.660;2024-01-30T03:23:00;1.70;90.80
42841;DHT22;28491;46.898;7.660;2024-01-30T03:25:25;1.70;91.00
42841;DHT22;28491;46.898;7.660;2024-01-30T03:27:51;1.70;88.70
42841;DHT22;28491;46.898;7.660;2024-01-30T03:30:17;1.60;79.00
42841;DHT22;28491;46.898;7.660;2024-01-30T03:32:43;1.60;81.90
42841;DHT22;28491;46.898;7.660;2024-01-30T03:35:08;1.60;86.20
42841;DHT22;28491;46.898;7.660;2024-01-30T03:37:34;1.60;89.70
42841;DHT22;28491;46.898;7.660;2024-01-30T03:40:01;1.60;85.50
42841;DHT22;28491;46.898;7.660;2024-01-30T03:42:26;1.50;89.40
42841;DHT22;28491;46.898;7.660;2024-01-30T03:44:52;1.50;87.30
42841;DHT22;28491;46.898;7.660;2024-01-30T03:47:19;1.50;90.30
42841;DHT22;28491;46.898;7.660;2024-01-30T03:49:45;1.50;90.70
42841;DHT22;28491;46.898;7.660;2024-01-30T03:52:11;1.50;90.80
42841;DHT22;28491;46.898;7.660;2024-01-30T03:54:36;1.50;87.00
42841;DHT22;28491;46.898;7.660;2024-01-30T03:57:02;1.60;90.30
42841;DHT22;28491;46.898;7.660;2024-01-30T03:59:27;1.60;90.40
42841;DHT22;28491;46.898;7.660;2024-01-30T04:01:54;1.60;88.30
42841;DHT22;28491;46.898;7.660;2024-01-30T04:04:20;1.60;82.40
42841;DHT22;28491;46.898;7.660;2024-01-30T04:06:46;1.60;87.90
42841;DHT22;28491;46.898;7.660;2024-01-30T04:09:12;1.60;84.90
42841;DHT22;28491;46.898;7.660;2024-01-30T04:11:39;1.60;81.50
42841;DHT22;28491;46.898;7.660;2024-01-30T04:14:05;1.60;77.10
42841;DHT22;28491;46.898;7.660;2024-01-30T04:16:30;1.60;79.30
42841;DHT22;28491;46.898;7.660;2024-01-30T04:18:56;1.60;74.00
42841;DHT22;28491;46.898;7.660;2024-01-30T04:21:22;1.60;78.80
42841;DHT22;28491;46.898;7.660;2024-01-30T04:23:48;1.60;78.80
42841;DHT22;28491;46.898;7.660;2024-01-30T04:26:14;1.60;80.90
42841;DHT22;28491;46.898;7.660;2024-01-30T04:28:42;1.60;75.10
42841;DHT22;28491;46.898;7.660;2024-01-30T04:31:07;1.60;76.70
42841;DHT22;28491;46.898;7.660;2024-01-30T04:33:33;1.60;76.40
42841;DHT22;28491;46.898;7.660;2024-01-30T04:35:58;1.60;75.30
42841;DHT22;28491;46.898;7.660;2024-01-30T04:38:24;1.60;79.60
42841;DHT22;28491;46.898;7.660;2024-01-30T04:40:49;1.60;81.50
42841;DHT22;28491;46.898;7.660;2024-01-30T04:43:15;1.60;82.50
42841;DHT22;28491;46.898;7.660;2024-01-30T04:45:41;1.60;78.10
42841;DHT22;28491;46.898;7.660;2024-01-30T04:48:07;1.60;75.60
42841;DHT22;28491;46.898;7.660;2024-01-30T04:50:33;1.50;79.00
42841;DHT22;28491;46.898;7.660;2024-01-30T04:52:58;1.60;76.50
42841;DHT22;28491;46.898;7.660;2024-01-30T04:55:24;1.60;82.20
42841;DHT22;28491;46.898;7.660;2024-01-30T04:57:49;1.60;80.10
42841;DHT22;28491;46.898;7.660;2024-01-30T05:00:15;1.60;83.40
42841;DHT22;28491;46.898;7.660;2024-01-30T05:02:41;1.50;79.00
42841;DHT22;28491;46.898;7.660;2024-01-30T05:05:06;1.50;79.10
42841;DHT22;28491;46.898;7.660;2024-01-30T05:07:33;1.50;86.00
42841;DHT22;28491;46.898;7.660;2024-01-30T05:09:58;1.50;85.90
42841;DHT22;28491;46.898;7.660;2024-01-30T05:12:24;1.50;87.50
42841;DHT22;28491;46.898;7.660;2024-01-30T05:14:49;1.50;83.40
42841;DHT22;28491;46.898;7.660;2024-01-30T05:17:15;1.50;83.20
42841;DHT22;28491;46.898;7.660;2024-01-30T05:19:41;1.50;85.50
42841;DHT22;28491;46.898;7.660;2024-01-30T05:22:06;1.50;86.50
42841;DHT22;28491;46.898;7.660;2024-01-30T05:24:32;1.50;87.80
42841;DHT22;28491;46.898;7.660;2024-01-30T05:26:58;1.50;85.30
42841;DHT22;28491;46.898;7.660;2024-01-30T05:29:24;1.50;89.40
42841;DHT22;28491;46.898;7.660;2024-01-30T05:31:49;1.50;89.30
42841;DHT22;28491;46.898;7.660;2024-01-30T05:34:16;1.50;87.40
42841;DHT22;28491;46.898;7.660;2024-01-30T05:36:41;1.50;88.70
42841;DHT22;28491;46.898;7.660;2024-01-30T05:39:07;1.60;84.50
42841;DHT22;28491;46.898;7.660;2024-01-30T05:41:32;1.60;83.60
42841;DHT22;28491;46.898;7.660;2024-01-30T05:43:58;1.60;84.50
42841;DHT22;28491;46.898;7.660;2024-01-30T05:46:23;1.70;84.40
42841;DHT22;28491;46.898;7.660;2024-01-30T05:48:49;1.70;80.20
42841;DHT22;28491;46.898;7.660;2024-01-30T05:51:14;1.70;82.30
42841;DHT22;28491;46.898;7.660;2024-01-30T05:53:40;1.70;75.70
42841;DHT22;28491;46.898;7.660;2024-01-30T05:56:06;1.60;76.30
42841;DHT22;28491;46.898;7.660;2024-01-30T05:58:32;1.60;74.90
42841;DHT22;28491;46.898;7.660;2024-01-30T06:00:58;1.60;76.90
42841;DHT22;28491;46.898;7.660;2024-01-30T06:03:23;1.60;75.50
42841;DHT22;28491;46.898;7.660;2024-01-30T06:05:49;1.70;77.80
42841;DHT22;28491;46.898;7.660;2024-01-30T06:08:14;1.60;77.80
42841;DHT22;28491;46.898;7.660;2024-01-30T06:10:40;1.60;80.60
42841;DHT22;28491;46.898;7.660;2024-01-30T06:13:06;1.70;79.40
42841;DHT22;28491;46.898;7.660;2024-01-30T06:15:31;1.70;81.50
42841;DHT22;28491;46.898;7.660;2024-01-30T06:17:58;1.70;84.30
42841;DHT22;28491;46.898;7.660;2024-01-30T06:20:24;1.70;81.60
42841;DHT22;28491;46.898;7.660;2024-01-30T06:22:49;1.70;83.20
42841;DHT22;28491;46.898;7.660;2024-01-30T06:25:15;1.70;82.70
42841;DHT22;28491;46.898;7.660;2024-01-30T06:27:42;1.70;80.50
42841;DHT22;28491;46.898;7.660;2024-01-30T06:30:08;1.80;70.30
42841;DHT22;28491;46.898;7.660;2024-01-30T06:32:35;1.80;73.10
42841;DHT22;28491;46.898;7.660;2024-01-30T06:35:01;1.80;70.40
42841;DHT22;28491;46.898;7.660;2024-01-30T06:37:27;1.80;66.90
42841;DHT22;28491;46.898;7.660;2024-01-30T06:39:52;1.80;68.90
42841;DHT22;28491;46.898;7.660;2024-01-30T06:42:18;1.80;66.20
42841;DHT22;28491;46.898;7.660;2024-01-30T06:44:44;1.90;65.50
42841;DHT22;28491;46.898;7.660;2024-01-30T06:47:10;1.90;66.30
42841;DHT22;28491;46.898;7.660;2024-01-30T06:49:35;1.90;63.30
42841;DHT22;28491;46.898;7.660;2024-01-30T06:52:05;1.90;66.80
42841;DHT22;28491;46.898;7.660;2024-01-30T06:54:31;1.90;67.20
42841;DHT22;28491;46.898;7.660;2024-01-30T06:56:58;1.90;69.80
42841;DHT22;28491;46.898;7.660;2024-01-30T06:59:26;1.90;64.90
42841;DHT22;28491;46.898;7.660;2024-01-30T07:01:52;1.80;63.50
42841;DHT22;28491;46.898;7.660;2024-01-30T07:04:17;1.90;49.50
42841;DHT22;28491;46.898;7.660;2024-01-30T07:06:44;1.90;45.10
42841;DHT22;28491;46.898;7.660;2024-01-30T07:09:09;1.90;47.90
42841;DHT22;28491;46.898;7.660;2024-01-30T07:11:35;1.90;61.50
42841;DHT22;28491;46.898;7.660;2024-01-30T07:14:00;1.90;60.50
42841;DHT22;28491;46.898;7.660;2024-01-30T07:16:29;1.90;60.60
42841;DHT22;28491;46.898;7.660;2024-01-30T07:18:54;1.90;44.20
42841;DHT22;28491;46.898;7.660;2024-01-30T07:21:21;1.90;65.10
42841;DHT22;28491;46.898;7.660;2024-01-30T07:23:50;2.00;67.20
42841;DHT22;28491;46.898;7.660;2024-01-30T07:26:15;1.90;64.20
42841;DHT22;28491;46.898;7.660;2024-01-30T07:28:41;1.90;65.10
42841;DHT22;28491;46.898;7.660;2024-01-30T07:31:07;2.00;63.30
42841;DHT22;28491;46.898;7.660;2024-01-30T07:33:32;1.90;61.40
42841;DHT22;28491;46.898;7.660;2024-01-30T07:35:58;1.90;32.50
42841;DHT22;28491;46.898;7.660;2024-01-30T07:38:23;1.90;28.30
42841;DHT22;28491;46.898;7.660;2024-01-30T07:40:49;1.90;39.10
42841;DHT22;28491;46.898;7.660;2024-01-30T07:43:15;2.00;35.80
42841;DHT22;28491;46.898;7.660;2024-01-30T07:45:40;2.00;23.20
42841;DHT22;28491;46.898;7.660;2024-01-30T07:48:06;2.00;29.20
42841;DHT22;28491;46.898;7.660;2024-01-30T07:50:32;2.00;25.90
42841;DHT22;28491;46.898;7.660;2024-01-30T07:52:59;2.00;18.50
42841;DHT22;28491;46.898;7.660;2024-01-30T07:55:25;2.00;28.70
42841;DHT22;28491;46.898;7.660;2024-01-30T07:57:54;2.00;29.50
42841;DHT22;28491;46.898;7.660;2024-01-30T08:00:21;2.00;52.40
42841;DHT22;28491;46.898;7.660;2024-01-30T08:02:46;2.10;60.80
42841;DHT22;28491;46.898;7.660;2024-01-30T08:05:12;2.10;55.50
42841;DHT22;28491;46.898;7.660;2024-01-30T08:07:39;2.10;61.60
42841;DHT22;28491;46.898;7.660;2024-01-30T08:10:05;2.10;57.10
42841;DHT22;28491;46.898;7.660;2024-01-30T08:12:31;2.20;30.90
42841;DHT22;28491;46.898;7.660;2024-01-30T08:14:56;2.20;50.00
42841;DHT22;28491;46.898;7.660;2024-01-30T08:17:22;2.20;63.40
42841;DHT22;28491;46.898;7.660;2024-01-30T08:19:47;2.30;65.10
42841;DHT22;28491;46.898;7.660;2024-01-30T08:22:13;2.30;67.30
42841;DHT22;28491;46.898;7.660;2024-01-30T08:24:40;2.40;72.90
42841;DHT22;28491;46.898;7.660;2024-01-30T08:27:06;2.40;67.10
42841;DHT22;28491;46.898;7.660;2024-01-30T08:29:35;2.40;70.00
42841;DHT22;28491;46.898;7.660;2024-01-30T08:32:00;2.50;77.40
42841;DHT22;28491;46.898;7.660;2024-01-30T08:34:26;2.50;83.80
42841;DHT22;28491;46.898;7.660;2024-01-30T08:36:52;2.60;82.20
42841;DHT22;28491;46.898;7.660;2024-01-30T08:39:18;2.60;72.60
42841;DHT22;28491;46.898;7.660;2024-01-30T08:41:43;2.70;62.10
42841;DHT22;28491;46.898;7.660;2024-01-30T08:44:12;2.80;62.80
42841;DHT22;28491;46.898;7.660;2024-01-30T08:46:37;3.00;56.50
42841;DHT22;28491;46.898;7.660;2024-01-30T08:49:03;2.90;49.30
42841;DHT22;28491;46.898;7.660;2024-01-30T08:51:31;3.00;13.20
42841;DHT22;28491;46.898;7.660;2024-01-30T08:53:57;3.10;21.60
42841;DHT22;28491;46.898;7.660;2024-01-30T08:56:22;3.20;22.90
42841;DHT22;28491;46.898;7.660;2024-01-30T08:58:48;3.20;18.80
42841;DHT22;28491;46.898;7.660;2024-01-30T09:01:14;3.30;10.80
42841;DHT22;28491;46.898;7.660;2024-01-30T09:03:39;3.30;3.90
42841;DHT22;28491;46.898;7.660;2024-01-30T09:06:10;3.40;64.90
42841;DHT22;28491;46.898;7.660;2024-01-30T09:08:35;3.40;62.40
42841;DHT22;28491;46.898;7.660;2024-01-30T09:11:01;3.40;65.80
42841;DHT22;28491;46.898;7.660;2024-01-30T09:13:27;3.40;75.10
42841;DHT22;28491;46.898;7.660;2024-01-30T09:15:53;3.50;70.40
42841;DHT22;28491;46.898;7.660;2024-01-30T09:18:18;3.50;65.90
42841;DHT22;28491;46.898;7.660;2024-01-30T09:20:44;3.50;64.60
42841;DHT22;28491;46.898;7.660;2024-01-30T09:23:12;3.50;62.00
42841;DHT22;28491;46.898;7.660;2024-01-30T09:25:38;3.60;64.70
42841;DHT22;28491;46.898;7.660;2024-01-30T09:28:04;3.60;48.10
42841;DHT22;28491;46.898;7.660;2024-01-30T09:30:30;3.70;32.90
42841;DHT22;28491;46.898;7.660;2024-01-30T09:32:55;3.80;24.00
42841;DHT22;28491;46.898;7.660;2024-01-30T09:35:21;3.80;1.00
42841;DHT22;28491;46.898;7.660;2024-01-30T09:37:46;3.90;1.00
42841;DHT22;28491;46.898;7.660;2024-01-30T09:40:13;3.90;1.00
42841;DHT22;28491;46.898;7.660;2024-01-30T09:42:39;3.90;1.00
42841;DHT22;28491;46.898;7.660;2024-01-30T09:45:05;3.90;1.00
42841;DHT22;28491;46.898;7.660;2024-01-30T09:47:32;3.90;1.00
42841;DHT22;28491;46.898;7.660;2024-01-30T09:50:01;3.90;61.90
42841;DHT22;28491;46.898;7.660;2024-01-30T09:52:28;3.90;86.10
42841;DHT22;28491;46.898;7.660;2024-01-30T09:54:53;4.00;85.90
42841;DHT22;28491;46.898;7.660;2024-01-30T09:57:19;3.90;90.90
42841;DHT22;28491;46.898;7.660;2024-01-30T09:59:44;3.90;86.70
42841;DHT22;28491;46.898;7.660;2024-01-30T10:02:10;3.80;87.30
42841;DHT22;28491;46.898;7.660;2024-01-30T10:04:36;3.80;87.90
42841;DHT22;28491;46.898;7.660;2024-01-30T10:07:02;3.80;86.70
42841;DHT22;28491;46.898;7.660;2024-01-30T10:09:28;3.80;78.80
42841;DHT22;28491;46.898;7.660;2024-01-30T10:11:54;3.80;64.50
42841;DHT22;28491;46.898;7.660;2024-01-30T10:14:20;3.90;64.60
42841;DHT22;28491;46.898;7.660;2024-01-30T10:16:46;3.80;69.80
42841;DHT22;28491;46.898;7.660;2024-01-30T10:19:12;3.90;78.20
42841;DHT22;28491;46.898;7.660;2024-01-30T10:21:37;3.90;82.50
42841;DHT22;28491;46.898;7.660;2024-01-30T10:24:03;4.00;83.80
42841;DHT22;28491;46.898;7.660;2024-01-30T10:26:29;4.00;86.20
42841;DHT22;28491;46.898;7.660;2024-01-30T10:28:58;4.10;90.00
42841;DHT22;28491;46.898;7.660;2024-01-30T10:31:23;4.20;90.50
42841;DHT22;28491;46.898;7.660;2024-01-30T10:33:49;4.30;96.90
42841;DHT22;28491;46.898;7.660;2024-01-30T10:36:15;4.40;90.40
42841;DHT22;28491;46.898;7.660;2024-01-30T10:38:43;4.50;88.60
42841;DHT22;28491;46.898;7.660;2024-01-30T10:41:12;4.50;86.40
42841;DHT22;28491;46.898;7.660;2024-01-30T10:43:50;4.60;84.30
42841;DHT22;28491;46.898;7.660;2024-01-30T10:46:20;4.60;74.00
42841;DHT22;28491;46.898;7.660;2024-01-30T10:48:58;4.80;65.50
42841;DHT22;28491;46.898;7.660;2024-01-30T10:51:27;4.90;1.00
42841;DHT22;28491;46.898;7.660;2024-01-30T10:53:53;5.00;1.00
42841;DHT22;28491;46.898;7.660;2024-01-30T10:56:21;5.00;99.90
42841;DHT22;28491;46.898;7.660;2024-01-30T10:58:52;5.20;65.40
42841;DHT22;28491;46.898;7.660;2024-01-30T11:01:22;5.30;1.00
42841;DHT22;28491;46.898;7.660;2024-01-30T11:03:55;5.30;1.00
42841;DHT22;28491;46.898;7.660;2024-01-30T11:06:41;5.30;97.60
42841;DHT22;28491;46.898;7.660;2024-01-30T11:09:11;5.30;99.90
42841;DHT22;28491;46.898;7.660;2024-01-30T11:11:57;5.30;1.00
42841;DHT22;28491;46.898;7.660;2024-01-30T11:14:29;5.30;1.00
42841;DHT22;28491;46.898;7.660;2024-01-30T11:16:59;5.40;1.00
42841;DHT22;28491;46.898;7.660;2024-01-30T11:19:25;5.40;69.40
42841;DHT22;28491;46.898;7.660;2024-01-30T11:21:52;5.40;78.40
42841;DHT22;28491;46.898;7.660;2024-01-30T11:24:20;5.40;86.50
42841;DHT22;28491;46.898;7.660;2024-01-30T11:26:48;5.40;69.10
42841;DHT22;28491;46.898;7.660;2024-01-30T11:29:15;5.40;75.50
42841;DHT22;28491;46.898;7.660;2024-01-30T11:31:52;5.40;81.60
42841;DHT22;28491;46.898;7.660;2024-01-30T11:34:19;5.60;88.60
42841;DHT22;28491;46.898;7.660;2024-01-30T11:36:48;5.70;63.20
42841;DHT22;28491;46.898;7.660;2024-01-30T11:39:20;5.90;83.70
42841;DHT22;28491;46.898;7.660;2024-01-30T11:41:46;6.00;90.90
42841;DHT22;28491;46.898;7.660;2024-01-30T11:44:13;5.90;91.00
42841;DHT22;28491;46.898;7.660;2024-01-30T11:46:38;5.90;97.50
42841;DHT22;28491;46.898;7.660;2024-01-30T11:49:04;5.90;99.90
42841;DHT22;28491;46.898;7.660;2024-01-30T11:51:31;5.90;96.70
42841;DHT22;28491;46.898;7.660;2024-01-30T11:53:57;5.90;94.80
42841;DHT22;28491;46.898;7.660;2024-01-30T11:56:24;6.10;88.90
42841;DHT22;28491;46.898;7.660;2024-01-30T11:58:50;6.20;65.30
42841;DHT22;28491;46.898;7.660;2024-01-30T12:01:17;6.20;1.00
42841;DHT22;28491;46.898;7.660;2024-01-30T12:03:48;6.20;2.30
42841;DHT22;28491;46.898;7.660;2024-01-30T12:06:15;6.10;14.20
42841;DHT22;28491;46.898;7.660;2024-01-30T12:08:41;6.20;1.00
42841;DHT22;28491;46.898;7.660;2024-01-30T12:11:07;6.20;1.00
42841;DHT22;28491;46.898;7.660;2024-01-30T12:13:33;6.20;13.20
42841;DHT22;28491;46.898;7.660;2024-01-30T12:15:59;6.10;29.70
42841;DHT22;28491;46.898;7.660;2024-01-30T12:18:24;6.20;62.30
42841;DHT22;28491;46.898;7.660;2024-01-30T12:20:57;6.10;66.30
42841;DHT22;28491;46.898;7.660;2024-01-30T12:23:24;6.10;71.60
42841;DHT22;28491;46.898;7.660;2024-01-30T12:25:51;6.10;67.30
42841;DHT22;28491;46.898;7.660;2024-01-30T12:28:17;6.30;86.00
42841;DHT22;28491;46.898;7.660;2024-01-30T12:30:43;6.30;79.30
42841;DHT22;28491;46.898;7.660;2024-01-30T12:33:08;6.30;66.70
42841;DHT22;28491;46.898;7.660;2024-01-30T12:35:35;6.30;68.50
42841;DHT22;28491;46.898;7.660;2024-01-30T12:38:01;6.30;73.10
42841;DHT22;28491;46.898;7.660;2024-01-30T12:40:27;6.30;71.30
42841;DHT22;28491;46.898;7.660;2024-01-30T12:42:54;6.50;18.70
42841;DHT22;28491;46.898;7.660;2024-01-30T12:45:19;6.80;1.00
42841;DHT22;28491;46.898;7.660;2024-01-30T12:47:47;6.80;1.00
42841;DHT22;28491;46.898;7.660;2024-01-30T12:50:12;6.90;1.00
42841;DHT22;28491;46.898;7.660;2024-01-30T12:52:41;6.60;53.20
42841;DHT22;28491;46.898;7.660;2024-01-30T12:55:06;6.70;73.20
42841;DHT22;28491;46.898;7.660;2024-01-30T12:57:32;6.80;72.20
42841;DHT22;28491;46.898;7.660;2024-01-30T12:59:58;6.80;81.00
42841;DHT22;28491;46.898;7.660;2024-01-30T13:02:23;7.00;67.20
42841;DHT22;28491;46.898;7.660;2024-01-30T13:04:49;7.00;56.70
42841;DHT22;28491;46.898;7.660;2024-01-30T13:07:15;7.10;65.50
42841;DHT22;28491;46.898;7.660;2024-01-30T13:09:41;7.00;60.90
42841;DHT22;28491;46.898;7.660;2024-01-30T13:12:06;7.10;48.00
42841;DHT22;28491;46.898;7.660;2024-01-30T13:14:32;6.90;37.10
42841;DHT22;28491;46.898;7.660;2024-01-30T13:16:58;6.90;62.90
42841;DHT22;28491;46.898;7.660;2024-01-30T13:19:23;6.80;74.40
42841;DHT22;28491;46.898;7.660;2024-01-30T13:21:49;6.70;82.00
42841;DHT22;28491;46.898;7.660;2024-01-30T13:24:14;6.70;96.00
42841;DHT22;28491;46.898;7.660;2024-01-30T13:26:40;6.70;96.60
42841;DHT22;28491;46.898;7.660;2024-01-30T13:29:07;7.00;99.90
42841;DHT22;28491;46.898;7.660;2024-01-30T13:31:33;6.90;97.50
42841;DHT22;28491;46.898;7.660;2024-01-30T13:34:00;7.10;69.50
42841;DHT22;28491;46.898;7.660;2024-01-30T13:36:25;7.10;91.30
42841;DHT22;28491;46.898;7.660;2024-01-30T13:38:51;7.10;95.90
42841;DHT22;28491;46.898;7.660;2024-01-30T13:41:16;7.10;1.00
42841;DHT22;28491;46.898;7.660;2024-01-30T13:43:43;7.10;1.00
42841;DHT22;28491;46.898;7.660;2024-01-30T13:46:09;7.10;1.00
42841;DHT22;28491;46.898;7.660;2024-01-30T13:48:35;7.10;97.40
42841;DHT22;28491;46.898;7.660;2024-01-30T13:51:01;7.10;95.90
42841;DHT22;28491;46.898;7.660;2024-01-30T13:53:26;7.00;95.20
42841;DHT22;28491;46.898;7.660;2024-01-30T13:55:52;7.00;94.30
42841;DHT22;28491;46.898;7.660;2024-01-30T13:58:17;7.00;95.20
42841;DHT22;28491;46.898;7.660;2024-01-30T14:00:43;7.00;97.30
42841;DHT22;28491;46.898;7.660;2024-01-30T14:03:09;6.90;99.90
42841;DHT22;28491;46.898;7.660;2024-01-30T14:05:34;7.00;1.00
42841;DHT22;28491;46.898;7.660;2024-01-30T14:08:00;7.00;1.00
42841;DHT22;28491;46.898;7.660;2024-01-30T14:10:26;7.00;1.00
42841;DHT22;28491;46.898;7.660;2024-01-30T14:12:52;7.00;1.00
42841;DHT22;28491;46.898;7.660;2024-01-30T14:15:17;7.00;1.00
42841;DHT22;28491;46.898;7.660;2024-01-30T14:17:44;7.10;1.00
42841;DHT22;28491;46.898;7.660;2024-01-30T14:20:10;7.10;1.00
42841;DHT22;28491;46.898;7.660;2024-01-30T14:22:36;7.20;1.00
42841;DHT22;28491;46.898;7.660;2024-01-30T14:25:02;7.10;1.00
42841;DHT22;28491;46.898;7.660;2024-01-30T14:27:30;7.10;1.00
42841;DHT22;28491;46.898;7.660;2024-01-30T14:29:57;7.00;1.00
42841;DHT22;28491;46.898;7.660;2024-01-30T14:32:23;7.10;62.60
42841;DHT22;28491;46.898;7.660;2024-01-30T14:34:49;7.00;49.40
42841;DHT22;28491;46.898;7.660;2024-01-30T14:37:14;7.00;61.50
42841;DHT22;28491;46.898;7.660;2024-01-30T14:39:40;6.90;63.20
42841;DHT22;28491;46.898;7.660;2024-01-30T14:42:06;6.90;63.30
42841;DHT22;28491;46.898;7.660;2024-01-30T14:44:32;6.90;69.30
42841;DHT22;28491;46.898;7.660;2024-01-30T14:46:59;6.80;75.70
42841;DHT22;28491;46.898;7.660;2024-01-30T14:49:25;6.80;76.30
42841;DHT22;28491;46.898;7.660;2024-01-30T14:51:50;6.80;75.40
42841;DHT22;28491;46.898;7.660;2024-01-30T14:54:16;6.80;90.10
42841;DHT22;28491;46.898;7.660;2024-01-30T14:56:41;6.80;90.60
42841;DHT22;28491;46.898;7.660;2024-01-30T14:59:07;6.90;95.70
42841;DHT22;28491;46.898;7.660;2024-01-30T15:01:32;7.00;94.20
42841;DHT22;28491;46.898;7.660;2024-01-30T15:03:58;7.10;90.00
42841;DHT22;28491;46.898;7.660;2024-01-30T15:06:24;7.10;90.00
42841;DHT22;28491;46.898;7.660;2024-01-30T15:08:51;7.10;83.10
42841;DHT22;28491;46.898;7.660;2024-01-30T15:11:16;7.10;86.50
42841;DHT22;28491;46.898;7.660;2024-01-30T15:13:42;7.10;85.10
42841;DHT22;28491;46.898;7.660;2024-01-30T15:16:08;7.00;89.50
42841;DHT22;28491;46.898;7.660;2024-01-30T15:18:34;7.00;82.90
42841;DHT22;28491;46.898;7.660;2024-01-30T15:20:59;6.90;83.80
42841;DHT22;28491;46.898;7.660;2024-01-30T15:23:25;6.90;85.40
42841;DHT22;28491;46.898;7.660;2024-01-30T15:25:50;6.90;85.30
42841;DHT22;28491;46.898;7.660;2024-01-30T15:28:16;6.80;81.60
42841;DHT22;28491;46.898;7.660;2024-01-30T15:30:42;6.80;85.10
42841;DHT22;28491;46.898;7.660;2024-01-30T15:33:12;6.70;86.00
42841;DHT22;28491;46.898;7.660;2024-01-30T15:35:37;6.70;90.00
42841;DHT22;28491;46.898;7.660;2024-01-30T15:38:04;6.60;90.80
42841;DHT22;28491;46.898;7.660;2024-01-30T15:40:33;6.60;91.60